Time;durP1;ratioP1;P1;durP2;ratioP2;P2;SDS_P1;SDS_P2;PMS_P1;PMS_P2;Temp;Humidity;BMP_temperature;BMP_pressure;BME280_temperature;BME280_humidity;BME280_pressure;Samples;Min_cycle;Max_cycle;Signal;HPM_P1;HPM_P2
2023/05/08 00:00:32;;;;;;;3.17;2.35;;;;;;;13.22;nan;61015.84;4974990;28;20198;-60
2023/05/08 00:02:58;;;;;;;2.85;2.35;;;;;;;13.14;nan;61015.09;4975368;28;20207;-63
2023/05/08 00:05:23;;;;;;;5.28;2.53;;;;;;;13.19;nan;61018.16;4974960;28;20181;-65
2023/05/08 00:07:51;;;;;;;5.22;3.08;;;;;;;13.14;nan;60958.66;4973833;28;20181;-63
2023/05/08 00:10:16;;;;;;;4.00;2.30;;;;;;;;;;4974355;28;20228;-62
2023/05/08 00:12:41;;;;;;;3.05;2.67;;;;;;;12.79;nan;60860.28;4974596;28;20178;-64
2023/05/08 00:15:08;;;;;;;4.15;2.78;;;;;;;12.79;nan;60834.66;4974626;28;20162;-65
2023/05/08 00:17:33;;;;;;;4.10;2.72;;;;;;;13.03;nan;60902.69;4974324;28;20181;-63
2023/05/08 00:19:59;;;;;;;5.82;2.72;;;;;;;12.85;nan;60974.72;4974342;28;20209;-64
2023/05/08 00:22:24;;;;;;;3.63;2.97;;;;;;;13.08;nan;61169.88;4974233;28;20260;-63
2023/05/08 00:24:49;;;;;;;4.63;2.85;;;;;;;13.01;nan;60890.16;4974259;28;20260;-64
2023/05/08 00:27:15;;;;;;;7.78;2.88;;;;;;;12.72;nan;60824.22;4974432;28;20261;-63
2023/05/08 00:29:40;;;;;;;4.20;2.90;;;;;;;12.83;nan;61136.50;4974289;28;20173;-64
2023/05/08 00:32:06;;;;;;;5.53;2.90;;;;;;;12.83;nan;60857.09;4974280;28;20285;-65
2023/05/08 00:34:32;;;;;;;8.40;2.92;;;;;;;12.65;nan;61004.00;4973832;28;20178;-64
2023/05/08 00:36:57;;;;;;;4.88;2.83;;;;;;;12.60;nan;60903.53;4973927;28;20657;-61
2023/05/08 00:39:23;;;;;;;4.25;2.90;;;;;;;12.71;nan;60892.31;4973192;28;20173;-65
2023/05/08 00:41:48;;;;;;;3.63;2.50;;;;;;;12.72;nan;60834.47;4974105;28;20202;-65
2023/05/08 00:44:14;;;;;;;3.08;2.47;;;;;;;12.92;nan;60895.41;4974267;28;20645;-64
2023/05/08 00:46:41;;;;;;;4.55;2.33;;;;;;;12.63;nan;60798.72;4974169;28;20182;-64
2023/05/08 00:49:09;;;;;;;3.58;2.45;;;;;;;12.84;nan;60960.75;4974409;28;20204;-64
2023/05/08 00:51:34;;;;;;;6.32;2.80;;;;;;;12.83;nan;60855.09;4974411;28;20162;-64
2023/05/08 00:54:00;;;;;;;5.82;2.97;;;;;;;12.72;nan;60849.84;4974086;28;20162;-64
2023/05/08 00:56:27;;;;;;;6.82;2.55;;;;;;;12.48;nan;60922.78;4973722;28;20170;-62
2023/05/08 00:58:52;;;;;;;3.90;2.58;;;;;;;12.71;nan;60869.81;4974489;28;20209;-65
2023/05/08 01:01:18;;;;;;;3.70;2.83;;;;;;;12.44;nan;60818.38;4974083;28;20233;-63
2023/05/08 01:03:44;;;;;;;4.68;2.97;;;;;;;12.40;nan;60796.50;4974333;28;20177;-65
2023/05/08 01:06:09;;;;;;;4.50;2.75;;;;;;;12.68;nan;60853.03;4974081;28;20323;-64
2023/05/08 01:08:35;;;;;;;4.00;2.90;;;;;;;11.44;nan;62173.88;4973499;28;20177;-64
2023/05/08 01:11:03;;;;;;;4.07;2.60;;;;;;;12.62;nan;60849.44;4973388;28;20225;-64
2023/05/08 01:13:36;;;;;;;5.70;2.67;;;;;;;12.77;nan;60865.72;4973547;28;20260;-63
2023/05/08 01:16:18;;;;;;;3.47;2.38;;;;;;;12.53;nan;60915.59;4973889;28;20676;-66
2023/05/08 01:19:02;;;;;;;8.38;2.85;;;;;;;12.27;nan;60774.22;4973675;28;20284;-61
2023/05/08 01:21:35;;;;;;;5.05;2.65;;;;;;;12.50;nan;60810.31;4973818;28;20263;-64
2023/05/08 01:24:21;;;;;;;2.92;2.50;;;;;;;12.62;nan;60889.88;4973734;28;20550;-63
2023/05/08 01:27:07;;;;;;;3.70;2.80;;;;;;;12.67;nan;60870.41;4973522;28;20212;-63
2023/05/08 01:30:03;;;;;;;3.65;2.83;;;;;;;12.53;nan;60900.25;4973422;28;20173;-64
2023/05/08 01:32:39;;;;;;;4.18;2.70;;;;;;;12.36;nan;60907.84;4973430;28;20181;-64
2023/05/08 01:35:28;;;;;;;2.63;2.22;;;;;;;12.21;nan;60734.19;4973498;28;20168;-63
2023/05/08 01:38:02;;;;;;;3.60;2.42;;;;;;;12.40;nan;60848.31;4973124;28;20531;-63
2023/05/08 01:40:51;;;;;;;3.88;2.90;;;;;;;12.15;nan;60868.84;4973609;28;20237;-64
2023/05/08 01:43:22;;;;;;;4.65;2.75;;;;;;;12.45;nan;60889.22;4973436;28;20168;-64
2023/05/08 01:45:51;;;;;;;4.43;3.50;;;;;;;12.21;nan;60773.16;4973392;28;20173;-63
2023/05/08 01:48:58;;;;;;;3.13;2.63;;;;;;;12.37;nan;60814.19;4972449;28;20613;-63
2023/05/08 01:51:27;;;;;;;4.97;2.58;;;;;;;12.14;nan;61036.69;4973316;28;20181;-63
2023/05/08 01:53:59;;;;;;;4.10;2.83;;;;;;;12.25;nan;61084.41;4973385;28;20174;-64
2023/05/08 01:56:28;;;;;;;4.32;2.72;;;;;;;12.03;nan;60726.78;4987938;28;20625;-62
2023/05/08 01:58:57;;;;;;;4.40;2.90;;;;;;;12.29;nan;60935.25;4973174;28;20704;-63
2023/05/08 02:01:25;;;;;;;3.78;2.72;;;;;;;12.30;nan;60752.53;4973226;28;20196;-62
2023/05/08 02:03:53;;;;;;;3.40;2.65;;;;;;;12.05;nan;60921.59;4973193;28;20178;-64
2023/05/08 02:06:20;;;;;;;3.58;2.47;;;;;;;12.23;nan;60779.97;4972890;28;20177;-64
2023/05/08 02:08:46;;;;;;;3.33;2.50;;;;;;;12.15;nan;60917.50;4972741;28;20275;-63
2023/05/08 02:11:14;;;;;;;3.45;2.72;;;;;;;12.16;nan;60805.41;4972730;28;20231;-64
2023/05/08 02:13:43;;;;;;;6.20;2.67;;;;;;;12.12;nan;60747.13;4973358;28;20193;-62
2023/05/08 02:16:10;;;;;;;4.28;2.65;;;;;;;11.84;nan;60928.66;4972780;28;20169;-62
2023/05/08 02:18:39;;;;;;;6.03;2.58;;;;;;;10.76;nan;60759.66;4971452;28;20192;-64
2023/05/08 02:21:05;;;;;;;3.92;2.70;;;;;;;12.03;nan;60799.03;4972575;28;20189;-62
2023/05/08 02:23:33;;;;;;;3.53;2.63;;;;;;;11.89;nan;61018.72;4972565;28;20178;-65
2023/05/08 02:26:00;;;;;;;3.45;2.47;;;;;;;11.91;nan;60759.94;4972397;28;20563;-64
2023/05/08 02:28:28;;;;;;;5.32;2.40;;;;;;;11.90;nan;61119.69;4972846;28;20173;-63
2023/05/08 02:30:55;;;;;;;4.65;3.00;;;;;;;11.98;nan;60890.66;4973453;28;20540;-61
2023/05/08 02:33:22;;;;;;;3.45;2.25;;;;;;;11.97;nan;60781.50;4972570;28;20177;-61
2023/05/08 02:35:49;;;;;;;4.03;2.47;;;;;;;11.63;nan;60736.16;4972374;28;20240;-63
2023/05/08 02:38:20;;;;;;;3.72;2.50;;;;;;;11.79;nan;60974.22;4972451;28;20173;-63
2023/05/08 02:40:49;;;;;;;2.75;2.33;;;;;;;11.62;nan;60885.94;4972800;28;20197;-63
2023/05/08 02:43:15;;;;;;;4.22;2.60;;;;;;;11.57;nan;60816.38;4972893;28;20260;-63
2023/05/08 02:46:13;;;;;;;3.53;2.60;;;;;;;11.79;nan;60800.75;4972666;28;20264;-64
2023/05/08 02:48:55;;;;;;;2.88;2.58;;;;;;;11.80;nan;60765.50;4971849;28;20217;-63
2023/05/08 02:51:48;;;;;;;4.55;3.08;;;;;;;11.78;nan;60788.84;4972442;28;20601;-63
2023/05/08 02:54:34;;;;;;;4.93;2.65;;;;;;;11.53;nan;60836.03;4972736;28;20169;-61
2023/05/08 02:57:30;;;;;;;4.25;2.40;;;;;;;11.73;nan;60832.41;4972321;28;20220;-65
2023/05/08 03:00:01;;;;;;;3.88;2.58;;;;;;;11.45;nan;60869.94;4972740;28;20268;-61
2023/05/08 03:02:38;;;;;;;4.35;2.80;;;;;;;11.73;nan;60745.41;4975717;28;20162;-64
2023/05/08 03:05:14;;;;;;;8.60;2.90;;;;;;;11.63;nan;60754.63;4976031;28;20276;-63
2023/05/08 03:07:41;;;;;;;5.47;3.03;;;;;;;11.72;nan;60772.44;4976396;28;20173;-62
2023/05/08 03:10:15;;;;;;;4.53;3.20;;;;;;;11.46;nan;60684.94;4975961;28;20225;-63
2023/05/08 03:12:45;;;;;;;4.63;2.65;;;;;;;11.75;nan;60782.91;4976106;28;20186;-63
2023/05/08 03:15:32;;;;;;;4.22;2.72;;;;;;;11.55;nan;60842.25;4975997;28;20649;-61
2023/05/08 03:18:05;;;;;;;3.60;2.80;;;;;;;11.92;nan;60889.59;4975330;28;20268;-64
2023/05/08 03:20:36;;;;;;;3.45;2.80;;;;;;;12.11;nan;60818.28;4976097;28;20248;-60
2023/05/08 03:23:05;;;;;;;4.55;3.00;;;;;;;11.89;nan;60758.25;4975831;28;20181;-64
2023/05/08 03:25:32;;;;;;;5.72;2.72;;;;;;;12.46;nan;60818.63;4975952;28;20262;-63
2023/05/08 03:27:59;;;;;;;3.70;2.90;;;;;;;12.49;nan;60952.66;4975619;28;20264;-65
2023/05/08 03:30:26;;;;;;;6.22;2.67;;;;;;;12.65;nan;60816.38;4975396;28;20649;-64
2023/05/08 03:32:53;;;;;;;3.45;2.63;;;;;;;13.61;nan;60959.16;4975589;28;20181;-64
2023/05/08 03:35:20;;;;;;;3.22;2.45;;;;;;;14.16;nan;61102.72;4975829;28;20208;-63
2023/05/08 03:37:46;;;;;;;4.75;3.20;;;;;;;14.75;nan;61032.47;4976224;28;20232;-63
2023/05/08 03:40:12;;;;;;;5.97;2.63;;;;;;;15.13;nan;61202.78;4973917;28;20204;-63
2023/05/08 03:42:40;;;;;;;3.53;2.60;;;;;;;14.75;nan;60975.34;4975062;28;20239;-62
2023/05/08 03:45:08;;;;;;;4.68;2.88;;;;;;;15.05;nan;61418.16;4974633;28;20268;-62
2023/05/08 03:47:34;;;;;;;3.72;3.13;;;;;;;14.78;nan;61077.00;4975138;28;20175;-63
2023/05/08 03:50:00;;;;;;;4.28;2.97;;;;;;;14.13;nan;60940.66;4975011;28;20170;-62
2023/05/08 03:52:25;;;;;;;3.70;2.88;;;;;;;13.10;nan;60995.16;4974862;28;20277;-63
2023/05/08 03:54:51;;;;;;;4.07;3.10;;;;;;;13.55;nan;60968.34;4974741;28;20177;-65
2023/05/08 03:57:16;;;;;;;9.57;3.55;;;;;;;13.10;nan;61031.06;4974803;28;20248;-61
2023/05/08 04:00:02;;;;;;;4.65;3.20;;;;;;;13.73;nan;61000.91;4974106;28;20177;-62
2023/05/08 04:02:31;;;;;;;7.65;3.47;;;;;;;15.35;nan;61106.69;4974653;28;20220;-64
2023/05/08 04:05:07;;;;;;;7.28;3.58;;;;;;;16.98;nan;61270.31;4974938;28;20256;-62
2023/05/08 04:07:41;;;;;;;5.53;3.30;;;;;;;18.13;nan;61406.88;4974707;28;20157;-63
2023/05/08 04:10:32;;;;;;;6.53;3.70;;;;;;;18.80;nan;61574.75;4974016;28;20251;-65
2023/05/08 04:13:12;;;;;;;5.15;3.42;;;;;;;19.07;nan;61646.78;4974861;28;20166;-67
2023/05/08 04:15:43;;;;;;;4.15;3.05;;;;;;;19.79;nan;61709.22;4974969;28;20661;-67
2023/05/08 04:18:13;;;;;;;4.57;3.10;;;;;;;19.96;nan;61746.66;4974687;28;20169;-68
2023/05/08 04:20:40;;;;;;;3.67;2.92;;;;;;;20.49;nan;61766.78;4974679;28;20212;-67
2023/05/08 04:23:08;;;;;;;7.47;3.30;;;;;;;20.50;nan;61780.91;4974829;28;20173;-67
2023/05/08 04:25:39;;;;;;;11.45;2.80;;;;;;;20.60;nan;61807.84;4974764;28;20629;-68
2023/05/08 04:28:05;;;;;;;4.50;3.08;;;;;;;20.61;nan;61814.16;4974938;28;20281;-68
2023/05/08 04:30:31;;;;;;;7.07;3.17;;;;;;;20.60;nan;61893.50;4974727;28;20193;-67
2023/05/08 04:32:58;;;;;;;5.03;2.92;;;;;;;20.79;nan;61941.09;4974748;28;20201;-68
2023/05/08 04:35:23;;;;;;;4.97;3.25;;;;;;;20.69;nan;61825.84;4974586;28;20177;-67
2023/05/08 04:37:49;;;;;;;7.03;3.33;;;;;;;20.71;nan;61838.53;4974397;28;20256;-68
2023/05/08 04:40:14;;;;;;;6.07;3.00;;;;;;;20.48;nan;61822.78;4974332;28;20296;-69
2023/05/08 04:42:42;;;;;;;4.85;2.83;;;;;;;20.12;nan;61712.94;4974348;28;20254;-68
2023/05/08 04:45:08;;;;;;;3.90;2.60;;;;;;;19.84;nan;61738.22;4974110;28;20674;-69
2023/05/08 04:47:34;;;;;;;7.63;3.50;;;;;;;19.80;nan;61689.59;4973791;28;20198;-66
2023/05/08 04:50:00;;;;;;;5.43;2.90;;;;;;;19.58;nan;61719.06;4974202;28;20688;-67
2023/05/08 04:52:25;;;;;;;5.47;2.90;;;;;;;19.31;nan;61658.47;4974117;28;20165;-69
2023/05/08 04:54:50;;;;;;;4.93;2.70;;;;;;;19.28;nan;61629.13;4974108;28;20176;-67
2023/05/08 04:57:16;;;;;;;5.32;3.33;;;;;;;19.28;nan;61831.22;4972624;28;20248;-69
2023/05/08 04:59:41;;;;;;;6.18;3.35;;;;;;;19.67;nan;61887.41;4973762;28;20169;-68
2023/05/08 05:02:07;;;;;;;5.32;2.97;;;;;;;19.09;nan;61654.25;4973374;28;20567;-66
2023/05/08 05:04:35;;;;;;;4.72;3.08;;;;;;;19.04;nan;61658.94;4973547;28;20663;-67
2023/05/08 05:07:00;;;;;;;5.22;3.00;;;;;;;18.89;nan;61621.19;4973777;28;20158;-69
2023/05/08 05:09:26;;;;;;;5.93;3.10;;;;;;;18.57;nan;61600.44;4973479;28;20507;-67
2023/05/08 05:11:51;;;;;;;5.68;3.17;;;;;;;18.42;nan;61545.75;4973250;28;20244;-67
2023/05/08 05:14:17;;;;;;;10.48;3.53;;;;;;;18.13;nan;61502.56;4973499;28;20165;-68
2023/05/08 05:16:42;;;;;;;6.45;3.05;;;;;;;17.94;nan;61478.47;4972884;28;20204;-69
2023/05/08 05:19:08;;;;;;;4.32;2.83;;;;;;;17.62;nan;61476.38;4974230;28;20205;-68
2023/05/08 05:21:37;;;;;;;5.22;3.28;;;;;;;17.56;nan;61461.84;4974170;28;20197;-68
2023/05/08 05:24:05;;;;;;;4.22;3.10;;;;;;;17.17;nan;61460.13;4987999;28;20272;-68
2023/05/08 05:26:30;;;;;;;5.65;3.05;;;;;;;16.74;nan;61375.91;4971863;28;20181;-70
2023/05/08 05:28:56;;;;;;;4.68;3.45;;;;;;;16.33;nan;61314.06;4973420;28;20173;-68
2023/05/08 05:31:21;;;;;;;5.60;3.10;;;;;;;16.01;nan;61295.94;4972785;28;20166;-68
2023/05/08 05:33:47;;;;;;;4.00;2.83;;;;;;;16.14;nan;61306.03;4973544;28;20652;-68
2023/05/08 05:36:12;;;;;;;4.30;3.40;;;;;;;16.05;nan;61280.41;4973154;28;20649;-68
2023/05/08 05:38:37;;;;;;;4.25;3.03;;;;;;;16.34;nan;61524.59;4973126;28;20181;-69
2023/05/08 05:41:03;;;;;;;5.70;3.47;;;;;;;16.44;nan;61344.56;4972789;28;20578;-68
2023/05/08 05:43:28;;;;;;;5.93;3.05;;;;;;;16.45;nan;61312.16;4972970;28;20608;-67
2023/05/08 05:45:55;;;;;;;4.72;3.00;;;;;;;16.33;nan;61339.84;4972682;28;20158;-68
2023/05/08 05:48:20;;;;;;;5.18;3.42;;;;;;;16.59;nan;61311.97;4987845;28;20181;-68
2023/05/08 05:50:46;;;;;;;5.22;3.30;;;;;;;16.67;nan;61370.00;4972950;28;20245;-68
2023/05/08 05:53:11;;;;;;;4.03;2.85;;;;;;;16.54;nan;61348.13;4972706;28;20232;-69
2023/05/08 05:55:37;;;;;;;6.95;2.75;;;;;;;16.28;nan;61347.06;4972574;28;20256;-68
2023/05/08 05:58:03;;;;;;;3.95;2.63;;;;;;;16.28;nan;61318.72;4972522;28;20177;-68
2023/05/08 06:00:30;;;;;;;4.55;3.13;;;;;;;16.42;nan;61362.91;4972165;28;20229;-68
2023/05/08 06:02:56;;;;;;;3.53;2.60;;;;;;;16.52;nan;61304.59;4972731;28;20200;-68
2023/05/08 06:05:22;;;;;;;3.03;2.53;;;;;;;16.21;nan;61471.19;4972633;28;20169;-68
2023/05/08 06:07:47;;;;;;;4.57;2.40;;;;;;;16.20;nan;61368.97;4973633;28;20626;-69
2023/05/08 06:10:13;;;;;;;4.15;2.33;;;;;;;16.18;nan;61323.47;4973085;28;20239;-70
2023/05/08 06:12:38;;;;;;;2.95;2.20;;;;;;;16.35;nan;61316.91;4972621;28;20551;-68
2023/05/08 06:15:04;;;;;;;3.00;2.30;;;;;;;16.16;nan;61330.94;4972697;28;20184;-69
2023/05/08 06:17:30;;;;;;;4.80;2.63;;;;;;;16.94;nan;61412.88;4987497;28;20221;-68
2023/05/08 06:19:56;;;;;;;3.95;2.42;;;;;;;17.37;nan;61477.06;4972648;28;20197;-67
2023/05/08 06:22:23;;;;;;;2.90;2.42;;;;;;;17.30;nan;61432.97;4972106;28;20553;-69
2023/05/08 06:24:52;;;;;;;2.55;2.10;;;;;;;17.19;nan;61609.56;4969581;28;20165;-69
2023/05/08 06:27:17;;;;;;;3.35;2.40;;;;;;;16.93;nan;61371.03;4969372;28;20195;-68
2023/05/08 06:29:43;;;;;;;5.03;2.70;;;;;;;16.99;nan;61444.91;4969074;28;20576;-70
2023/05/08 06:32:08;;;;;;;4.15;3.03;;;;;;;17.24;nan;61658.56;4969886;28;21004;-69
2023/05/08 06:34:33;;;;;;;5.70;3.13;;;;;;;17.78;nan;61535.28;4968395;28;20264;-69
2023/05/08 06:36:59;;;;;;;3.97;2.50;;;;;;;17.71;nan;61486.03;4973743;28;20741;-68
2023/05/08 06:39:24;;;;;;;3.75;2.65;;;;;;;17.95;nan;61516.34;4972754;28;20228;-70
2023/05/08 06:41:49;;;;;;;4.10;2.55;;;;;;;18.13;nan;61558.88;4972636;28;20220;-68
2023/05/08 06:44:15;;;;;;;3.97;2.42;;;;;;;18.09;nan;61531.63;4972899;28;20264;-68
2023/05/08 06:46:40;;;;;;;4.07;2.70;;;;;;;17.91;nan;61485.97;4972675;28;20573;-69
2023/05/08 06:49:06;;;;;;;4.03;2.20;;;;;;;18.19;nan;61522.28;4972777;28;20571;-68
2023/05/08 06:51:34;;;;;;;4.78;2.65;;;;;;;18.29;nan;61522.69;4972591;28;20312;-69
2023/05/08 06:54:00;;;;;;;3.03;2.50;;;;;;;18.10;nan;61450.59;4972501;28;20184;-68
2023/05/08 06:56:25;;;;;;;4.68;2.75;;;;;;;17.69;nan;61691.03;4972507;28;20177;-68
2023/05/08 06:58:50;;;;;;;4.90;2.25;;;;;;;18.23;nan;61482.84;4970608;28;20185;-69
2023/05/08 07:01:16;;;;;;;3.45;2.45;;;;;;;18.67;nan;61565.78;4988102;28;20213;-69
2023/05/08 07:03:41;;;;;;;3.65;2.30;;;;;;;18.61;nan;61608.13;4976085;28;20185;-69
2023/05/08 07:06:08;;;;;;;3.40;2.60;;;;;;;18.82;nan;61608.09;4976137;28;20162;-69
2023/05/08 07:08:34;;;;;;;3.70;2.45;;;;;;;18.71;nan;61561.97;4975955;28;20183;-69
2023/05/08 07:10:59;;;;;;;3.55;2.30;;;;;;;18.39;nan;61537.19;4975373;28;20225;-68
2023/05/08 07:13:25;;;;;;;5.03;2.70;;;;;;;18.30;nan;61558.03;4975330;28;20583;-68
2023/05/08 07:15:51;;;;;;;3.55;2.38;;;;;;;18.22;nan;61507.56;4974188;28;20240;-68
2023/05/08 07:18:16;;;;;;;3.58;2.63;;;;;;;17.95;nan;61471.84;4709102;28;20869;-69
2023/05/08 07:20:41;;;;;;;3.47;2.55;;;;;;;18.19;nan;61542.97;4287214;28;20887;-73
2023/05/08 07:23:07;;;;;;;4.28;2.70;;;;;;;18.69;nan;61580.41;4486678;28;20283;-68
2023/05/08 07:25:32;;;;;;;3.10;2.30;;;;;;;18.83;nan;61604.59;4972264;28;20613;-69
2023/05/08 07:27:58;;;;;;;4.60;2.88;;;;;;;19.52;nan;61660.44;4972042;28;20218;-68
2023/05/08 07:30:23;;;;;;;4.30;2.90;;;;;;;18.85;nan;61611.47;4972105;28;20184;-68
2023/05/08 07:32:48;;;;;;;4.97;2.75;;;;;;;18.86;nan;61555.66;4971900;28;20238;-68
2023/05/08 07:35:14;;;;;;;3.65;2.60;;;;;;;19.16;nan;61656.41;4972555;28;20600;-68
2023/05/08 07:37:39;;;;;;;4.63;2.60;;;;;;;19.01;nan;61624.44;4974581;28;20184;-68
2023/05/08 07:40:05;;;;;;;5.50;2.70;;;;;;;19.52;nan;61640.25;4975167;28;20177;-69
2023/05/08 07:42:38;;;;;;;4.10;2.80;;;;;;;19.85;nan;61716.00;4974965;28;20604;-68
2023/05/08 07:45:04;;;;;;;4.43;2.80;;;;;;;20.14;nan;61876.06;4975482;28;20169;-69
2023/05/08 07:47:29;;;;;;;3.33;2.60;;;;;;;20.35;nan;61782.59;4973986;28;20691;-69
2023/05/08 07:49:55;;;;;;;3.70;2.60;;;;;;;19.44;nan;61666.91;4975165;28;20158;-68
2023/05/08 07:52:20;;;;;;;4.47;2.90;;;;;;;19.37;nan;61657.47;4975046;28;20169;-69
2023/05/08 07:54:46;;;;;;;4.80;2.65;;;;;;;19.91;nan;61753.38;4974842;28;20177;-68
2023/05/08 07:57:11;;;;;;;4.32;2.80;;;;;;;19.87;nan;61709.94;4974921;28;20670;-68
2023/05/08 07:59:37;;;;;;;4.43;2.97;;;;;;;19.78;nan;61726.22;4974796;28;20178;-71
2023/05/08 08:02:02;;;;;;;5.70;2.83;;;;;;;19.40;nan;61850.06;4973196;28;20205;-68
2023/05/08 08:04:28;;;;;;;3.97;2.92;;;;;;;19.54;nan;61641.97;4974672;28;20173;-69
2023/05/08 08:06:54;;;;;;;4.22;2.72;;;;;;;19.70;nan;61684.00;4974142;28;20648;-67
2023/05/08 08:09:19;;;;;;;4.60;3.13;;;;;;;20.02;nan;61734.75;4974723;28;20182;-69
2023/05/08 08:11:44;;;;;;;4.95;3.20;;;;;;;20.03;nan;61723.47;4973908;28;20783;-69
2023/05/08 08:14:10;;;;;;;3.90;3.00;;;;;;;19.20;nan;61630.44;4974388;28;20204;-69
2023/05/08 08:16:35;;;;;;;5.13;3.10;;;;;;;19.68;nan;61688.94;4974272;28;20201;-69
2023/05/08 08:19:01;;;;;;;3.78;2.55;;;;;;;19.77;nan;61717.31;4973310;28;20189;-70
2023/05/08 08:21:27;;;;;;;4.13;2.72;;;;;;;19.76;nan;61666.91;4972870;28;20247;-69
2023/05/08 08:23:52;;;;;;;3.70;2.63;;;;;;;20.42;nan;61774.41;4974298;28;20636;-68
2023/05/08 08:26:18;;;;;;;4.25;2.80;;;;;;;20.82;nan;61874.38;4974030;28;20174;-69
2023/05/08 08:28:43;;;;;;;5.25;3.33;;;;;;;20.90;nan;61841.91;4974085;28;20554;-69
2023/05/08 08:31:08;;;;;;;3.50;2.78;;;;;;;20.92;nan;61838.44;4973693;28;20311;-68
2023/05/08 08:33:34;;;;;;;7.78;3.08;;;;;;;20.84;nan;61824.16;4974021;28;20198;-67
2023/05/08 08:35:59;;;;;;;4.07;2.63;;;;;;;20.29;nan;61757.63;4973859;28;20205;-68
2023/05/08 08:38:24;;;;;;;4.60;2.88;;;;;;;20.49;nan;61788.13;4974554;28;20523;-67
2023/05/08 08:40:51;;;;;;;5.35;2.92;;;;;;;20.87;nan;61830.16;4973322;28;20243;-68
2023/05/08 08:43:17;;;;;;;8.65;2.92;;;;;;;21.44;nan;61899.59;4973897;28;20169;-70
2023/05/08 08:45:43;;;;;;;4.13;2.83;;;;;;;21.93;nan;61986.53;4973674;28;20227;-69
2023/05/08 08:48:11;;;;;;;5.40;2.88;;;;;;;22.32;nan;62037.63;4973715;28;20178;-68
2023/05/08 08:50:41;;;;;;;3.88;2.97;;;;;;;22.22;nan;61948.69;4973901;28;20742;-68
2023/05/08 08:53:14;;;;;;;4.90;3.10;;;;;;;21.98;nan;61935.00;4973695;28;20158;-68
2023/05/08 08:55:44;;;;;;;5.80;3.13;;;;;;;22.46;nan;62002.03;4972532;28;20522;-71
2023/05/08 08:58:35;;;;;;;4.38;2.90;;;;;;;22.83;nan;62079.50;4973772;28;20173;-69
2023/05/08 09:01:02;;;;;;;4.40;2.88;;;;;;;22.93;nan;62066.88;4972438;28;20239;-69
2023/05/08 09:03:30;;;;;;;5.50;3.20;;;;;;;22.70;nan;62026.22;4973860;28;20796;-68
2023/05/08 09:06:00;;;;;;;4.30;2.90;;;;;;;22.66;nan;62018.47;4973814;28;20177;-68
2023/05/08 09:08:26;;;;;;;3.90;2.75;;;;;;;22.11;nan;61956.44;4974219;28;20158;-67
2023/05/08 09:10:55;;;;;;;4.55;2.97;;;;;;;21.76;nan;61959.38;4973617;28;20731;-69
2023/05/08 09:13:21;;;;;;;5.80;2.90;;;;;;;21.68;nan;61924.28;4988742;28;20193;-68
2023/05/08 09:15:49;;;;;;;3.80;2.88;;;;;;;21.11;nan;61873.56;4973336;28;20177;-68
2023/05/08 09:18:15;;;;;;;5.32;2.72;;;;;;;21.57;nan;61906.56;4978049;28;20288;-69
2023/05/08 09:20:40;;;;;;;5.25;3.22;;;;;;;21.36;nan;61870.28;4974962;28;20304;-69
2023/05/08 09:23:06;;;;;;;5.13;3.10;;;;;;;21.49;nan;61939.63;4975549;28;20196;-69
2023/05/08 09:25:45;;;;;;;4.57;3.10;;;;;;;21.85;nan;61941.00;4975397;28;20223;-69
2023/05/08 09:28:19;;;;;;;4.85;3.13;;;;;;;22.03;nan;61969.31;4978246;28;20193;-68
2023/05/08 09:30:53;;;;;;;5.13;3.53;;;;;;;22.06;nan;61948.16;4976454;28;20196;-68
2023/05/08 09:33:20;;;;;;;10.10;3.53;;;;;;;21.60;nan;61907.34;4971623;28;20243;-70
2023/05/08 09:35:49;;;;;;;5.88;3.40;;;;;;;21.73;nan;61937.19;4973980;28;20196;-68
2023/05/08 09:38:34;;;;;;;4.45;3.10;;;;;;;22.46;nan;61996.84;4976408;28;20188;-68
2023/05/08 09:41:15;;;;;;;6.13;3.28;;;;;;;22.50;nan;62021.66;4960922;28;20246;-69
2023/05/08 09:43:43;;;;;;;5.25;3.33;;;;;;;22.73;nan;62050.47;4974676;28;20185;-68
2023/05/08 09:46:22;;;;;;;4.80;2.75;;;;;;;22.46;nan;61991.06;4977888;28;20177;-70
2023/05/08 09:48:49;;;;;;;5.20;3.40;;;;;;;22.11;nan;61983.03;4981408;28;20187;-68
2023/05/08 09:51:15;;;;;;;5.00;3.70;;;;;;;22.11;nan;61983.03;4977471;28;20575;-69
2023/05/08 09:53:40;;;;;;;6.15;3.25;;;;;;;22.83;nan;62079.50;4974907;28;20185;-67
2023/05/08 09:56:06;;;;;;;6.38;4.15;;;;;;;23.06;nan;62064.00;4976428;28;20243;-69
2023/05/08 09:58:39;;;;;;;7.22;3.08;;;;;;;22.57;nan;62227.00;4991813;28;20193;-68
2023/05/08 10:01:06;;;;;;;6.47;3.50;;;;;;;23.24;nan;62138.69;4976506;28;20306;-69
2023/05/08 10:03:50;;;;;;;5.93;3.45;;;;;;;23.15;nan;62131.63;4974655;28;20186;-69
2023/05/08 10:06:15;;;;;;;6.32;3.50;;;;;;;23.27;nan;62116.59;4972489;28;20182;-68
2023/05/08 10:08:41;;;;;;;4.50;3.35;;;;;;;23.42;nan;62135.72;4976776;28;20200;-68
2023/05/08 10:11:17;;;;;;;8.52;3.92;;;;;;;23.48;nan;62149.84;4976363;28;20726;-69
2023/05/08 10:13:46;;;;;;;7.00;3.78;;;;;;;23.41;nan;62144.44;4977194;28;20219;-69
2023/05/08 10:16:16;;;;;;;4.85;3.58;;;;;;;23.08;nan;62125.66;4977917;28;20180;-68
2023/05/08 10:18:47;;;;;;;5.72;3.10;;;;;;;23.19;nan;62125.16;4991201;28;20216;-68
2023/05/08 10:21:13;;;;;;;5.90;3.20;;;;;;;23.23;nan;62099.00;4972471;28;20217;-69
2023/05/08 10:23:41;;;;;;;5.60;3.35;;;;;;;22.36;nan;61961.44;4972522;28;20184;-68
2023/05/08 10:26:12;;;;;;;6.28;3.53;;;;;;;22.49;nan;62010.09;4972231;28;20232;-69
2023/05/08 10:28:41;;;;;;;4.50;3.40;;;;;;;22.77;nan;62012.75;4977398;28;20181;-69
2023/05/08 10:31:10;;;;;;;8.13;3.45;;;;;;;22.25;nan;61978.13;4976653;28;20184;-69
2023/05/08 10:33:39;;;;;;;5.63;3.53;;;;;;;22.70;nan;62025.63;4972838;28;20176;-69
2023/05/08 10:36:05;;;;;;;6.07;3.47;;;;;;;22.93;nan;62111.19;4972246;28;20217;-69
2023/05/08 10:38:32;;;;;;;9.05;3.63;;;;;;;23.14;nan;62271.25;4976462;28;20280;-69
2023/05/08 10:41:01;;;;;;;6.30;3.95;;;;;;;23.04;nan;62093.00;4972878;28;20235;-69
2023/05/08 10:43:29;;;;;;;7.03;3.92;;;;;;;23.40;nan;62123.00;4974262;28;20193;-69
2023/05/08 10:45:57;;;;;;;5.05;3.65;;;;;;;23.40;nan;62096.38;4964112;28;20252;-68
2023/05/08 10:48:53;;;;;;;5.07;3.40;;;;;;;23.73;nan;62144.41;4971693;28;20174;-69
2023/05/08 10:51:35;;;;;;;10.50;3.42;;;;;;;24.06;nan;62460.84;4978346;28;20653;-70
2023/05/08 10:54:45;;;;;;;5.97;4.07;;;;;;;23.61;nan;62113.06;4973070;28;20200;-69
2023/05/08 10:57:11;;;;;;;6.05;3.95;;;;;;;23.29;nan;62113.09;4983347;28;20200;-69
2023/05/08 10:59:37;;;;;;;6.47;4.00;;;;;;;23.29;nan;62136.56;4974525;28;20320;-67
2023/05/08 11:02:05;;;;;;;5.10;3.70;;;;;;;23.52;nan;62162.81;4976315;28;20284;-68
2023/05/08 11:04:31;;;;;;;5.85;3.97;;;;;;;23.47;nan;62164.94;4976352;28;20232;-69
2023/05/08 11:06:57;;;;;;;5.97;3.70;;;;;;;23.78;nan;62197.09;4976540;28;20181;-70
2023/05/08 11:09:46;;;;;;;6.50;3.70;;;;;;;24.20;nan;62237.19;4972947;28;20207;-69
2023/05/08 11:12:18;;;;;;;6.38;3.78;;;;;;;24.21;nan;62203.81;4978537;28;20676;-69
2023/05/08 11:15:02;;;;;;;5.88;4.18;;;;;;;24.05;nan;62227.88;4976343;28;20300;-68
2023/05/08 11:17:27;;;;;;;4.65;3.60;;;;;;;24.18;nan;62226.50;4970291;28;20177;-70
2023/05/08 11:19:55;;;;;;;6.18;3.75;;;;;;;23.95;nan;62153.25;4975285;28;20181;-70
2023/05/08 11:22:31;;;;;;;9.60;3.83;;;;;;;23.91;nan;62148.69;4977992;28;20617;-69
2023/05/08 11:25:05;;;;;;;6.38;3.90;;;;;;;23.98;nan;62193.22;4967343;28;20169;-69
2023/05/08 11:27:41;;;;;;;5.18;4.10;;;;;;;24.07;nan;62206.66;4979503;28;20641;-72
2023/05/08 11:30:19;;;;;;;5.40;4.05;;;;;;;24.15;nan;62241.31;4977133;28;20198;-69
2023/05/08 11:33:15;;;;;;;5.57;3.92;;;;;;;24.64;nan;62262.72;4975011;28;20228;-70
2023/05/08 11:35:49;;;;;;;5.32;3.58;;;;;;;24.88;nan;62284.88;4972496;28;20236;-70
2023/05/08 11:38:17;;;;;;;6.80;3.88;;;;;;;24.75;nan;62296.19;4982660;28;20625;-69
2023/05/08 11:41:06;;;;;;;6.00;4.03;;;;;;;25.19;nan;62400.81;4979321;28;20224;-69
2023/05/08 11:43:32;;;;;;;5.80;3.55;;;;;;;25.07;nan;62317.03;4978446;28;20259;-70
2023/05/08 11:46:05;;;;;;;6.75;4.05;;;;;;;25.44;nan;62418.91;4976733;28;20561;-69
2023/05/08 11:48:31;;;;;;;5.88;4.50;;;;;;;26.01;nan;62480.31;4973387;28;20178;-69
2023/05/08 11:50:58;;;;;;;4.93;3.97;;;;;;;26.26;nan;62487.41;4980055;28;20189;-68
2023/05/08 11:53:24;;;;;;;8.57;4.30;;;;;;;26.46;nan;62514.94;4979292;28;20181;-69
2023/05/08 11:55:52;;;;;;;7.05;4.28;;;;;;;26.81;nan;62492.03;4976723;28;20184;-69
2023/05/08 11:58:18;;;;;;;5.30;4.07;;;;;;;25.75;nan;62440.13;4976988;28;20247;-70
2023/05/08 12:00:45;;;;;;;6.00;4.03;;;;;;;26.24;nan;62361.97;4976875;28;20209;-69